sensor_id;sensor_type;location;lat;lon;timestamp;P1;durP1;ratioP1;P2;durP2;ratioP2
22687;SDS011;11511;51.514;7.080;2022-12-24T00:02:17;24.70;;;4.60;;
22687;SDS011;11511;51.514;7.080;2022-12-24T00:04:43;21.88;;;3.95;;
22687;SDS011;11511;51.514;7.080;2022-12-24T00:07:09;22.55;;;4.40;;
22687;SDS011;11511;51.514;7.080;2022-12-24T00:09:35;29.40;;;4.20;;
22687;SDS011;11511;51.514;7.080;2022-12-24T00:12:01;21.45;;;4.05;;
22687;SDS011;11511;51.514;7.080;2022-12-24T00:14:27;19.33;;;4.05;;
22687;SDS011;11511;51.514;7.080;2022-12-24T00:16:52;23.38;;;4.35;;
22687;SDS011;11511;51.514;7.080;2022-12-24T00:19:19;24.45;;;4.97;;
22687;SDS011;11511;51.514;7.080;2022-12-24T00:21:45;20.98;;;4.65;;
22687;SDS011;11511;51.514;7.080;2022-12-24T00:24:10;25.52;;;4.55;;
22687;SDS011;11511;51.514;7.080;2022-12-24T00:26:36;19.73;;;3.85;;
22687;SDS011;11511;51.514;7.080;2022-12-24T00:29:03;23.60;;;4.10;;
22687;SDS011;11511;51.514;7.080;2022-12-24T00:31:29;19.48;;;3.60;;
22687;SDS011;11511;51.514;7.080;2022-12-24T00:33:55;23.85;;;4.18;;
22687;SDS011;11511;51.514;7.080;2022-12-24T00:36:20;21.85;;;3.80;;
22687;SDS011;11511;51.514;7.080;2022-12-24T00:38:47;21.35;;;4.28;;
22687;SDS011;11511;51.514;7.080;2022-12-24T00:41:13;22.40;;;4.35;;
22687;SDS011;11511;51.514;7.080;2022-12-24T00:43:52;24.67;;;4.32;;
22687;SDS011;11511;51.514;7.080;2022-12-24T00:46:18;28.67;;;3.88;;
22687;SDS011;11511;51.514;7.080;2022-12-24T00:48:44;27.67;;;4.43;;
22687;SDS011;11511;51.514;7.080;2022-12-24T00:51:10;23.75;;;4.32;;
22687;SDS011;11511;51.514;7.080;2022-12-24T00:53:36;22.00;;;4.25;;
22687;SDS011;11511;51.514;7.080;2022-12-24T00:56:01;27.10;;;4.28;;
22687;SDS011;11511;51.514;7.080;2022-12-24T00:58:27;30.80;;;5.00;;
22687;SDS011;11511;51.514;7.080;2022-12-24T01:00:53;25.08;;;4.72;;
22687;SDS011;11511;51.514;7.080;2022-12-24T01:03:19;27.48;;;4.15;;
22687;SDS011;11511;51.514;7.080;2022-12-24T01:05:44;22.25;;;4.80;;
22687;SDS011;11511;51.514;7.080;2022-12-24T01:08:10;21.00;;;3.80;;
22687;SDS011;11511;51.514;7.080;2022-12-24T01:10:36;23.45;;;4.28;;
22687;SDS011;11511;51.514;7.080;2022-12-24T01:13:02;28.98;;;4.97;;
22687;SDS011;11511;51.514;7.080;2022-12-24T01:15:28;28.23;;;4.38;;
22687;SDS011;11511;51.514;7.080;2022-12-24T01:17:54;30.88;;;5.00;;
22687;SDS011;11511;51.514;7.080;2022-12-24T01:20:20;30.40;;;5.18;;
22687;SDS011;11511;51.514;7.080;2022-12-24T01:22:46;24.08;;;4.10;;
22687;SDS011;11511;51.514;7.080;2022-12-24T01:25:13;30.67;;;4.43;;
22687;SDS011;11511;51.514;7.080;2022-12-24T01:27:39;24.08;;;4.18;;
22687;SDS011;11511;51.514;7.080;2022-12-24T01:30:06;28.20;;;4.55;;
22687;SDS011;11511;51.514;7.080;2022-12-24T01:32:32;25.45;;;4.28;;
22687;SDS011;11511;51.514;7.080;2022-12-24T01:34:58;31.25;;;5.40;;
22687;SDS011;11511;51.514;7.080;2022-12-24T01:37:24;26.02;;;4.60;;
22687;SDS011;11511;51.514;7.080;2022-12-24T01:39:50;29.58;;;4.65;;
22687;SDS011;11511;51.514;7.080;2022-12-24T01:42:37;29.17;;;4.50;;
22687;SDS011;11511;51.514;7.080;2022-12-24T01:45:34;24.83;;;4.30;;
22687;SDS011;11511;51.514;7.080;2022-12-24T01:48:11;32.47;;;4.35;;
22687;SDS011;11511;51.514;7.080;2022-12-24T01:50:40;27.23;;;5.05;;
22687;SDS011;11511;51.514;7.080;2022-12-24T01:53:06;30.23;;;3.90;;
22687;SDS011;11511;51.514;7.080;2022-12-24T01:55:35;31.42;;;4.70;;
22687;SDS011;11511;51.514;7.080;2022-12-24T01:58:01;30.15;;;4.32;;
22687;SDS011;11511;51.514;7.080;2022-12-24T02:00:30;28.25;;;4.50;;
22687;SDS011;11511;51.514;7.080;2022-12-24T02:02:56;21.33;;;4.38;;
22687;SDS011;11511;51.514;7.080;2022-12-24T02:05:23;28.13;;;4.60;;
22687;SDS011;11511;51.514;7.080;2022-12-24T02:07:54;26.85;;;5.03;;
22687;SDS011;11511;51.514;7.080;2022-12-24T02:10:21;32.65;;;4.60;;
22687;SDS011;11511;51.514;7.080;2022-12-24T02:12:47;21.88;;;4.13;;
22687;SDS011;11511;51.514;7.080;2022-12-24T02:15:14;23.40;;;4.82;;
22687;SDS011;11511;51.514;7.080;2022-12-24T02:20:35;35.30;;;5.15;;
22687;SDS011;11511;51.514;7.080;2022-12-24T02:31:42;36.17;;;5.00;;
22687;SDS011;11511;51.514;7.080;2022-12-24T02:34:21;29.38;;;5.25;;
22687;SDS011;11511;51.514;7.080;2022-12-24T02:36:59;29.27;;;5.00;;
22687;SDS011;11511;51.514;7.080;2022-12-24T02:42:40;26.90;;;5.47;;
22687;SDS011;11511;51.514;7.080;2022-12-24T02:45:08;27.95;;;5.18;;
22687;SDS011;11511;51.514;7.080;2022-12-24T02:47:40;24.90;;;5.20;;
22687;SDS011;11511;51.514;7.080;2022-12-24T02:50:08;36.25;;;6.03;;
22687;SDS011;11511;51.514;7.080;2022-12-24T02:52:39;28.73;;;5.35;;
22687;SDS011;11511;51.514;7.080;2022-12-24T03:00:14;30.30;;;5.38;;
22687;SDS011;11511;51.514;7.080;2022-12-24T03:02:46;30.13;;;4.53;;
22687;SDS011;11511;51.514;7.080;2022-12-24T03:05:24;25.83;;;4.50;;
22687;SDS011;11511;51.514;7.080;2022-12-24T03:08:15;27.77;;;4.65;;
22687;SDS011;11511;51.514;7.080;2022-12-24T03:13:15;31.63;;;4.90;;
22687;SDS011;11511;51.514;7.080;2022-12-24T03:15:43;24.48;;;4.63;;
22687;SDS011;11511;51.514;7.080;2022-12-24T03:18:12;27.38;;;4.25;;
22687;SDS011;11511;51.514;7.080;2022-12-24T03:21:01;30.73;;;5.22;;
22687;SDS011;11511;51.514;7.080;2022-12-24T03:23:29;30.33;;;4.47;;
22687;SDS011;11511;51.514;7.080;2022-12-24T03:25:55;30.05;;;4.90;;
22687;SDS011;11511;51.514;7.080;2022-12-24T03:28:24;27.02;;;4.35;;
22687;SDS011;11511;51.514;7.080;2022-12-24T03:30:53;26.65;;;4.88;;
22687;SDS011;11511;51.514;7.080;2022-12-24T03:33:19;34.63;;;5.15;;
22687;SDS011;11511;51.514;7.080;2022-12-24T03:35:45;31.48;;;4.65;;
22687;SDS011;11511;51.514;7.080;2022-12-24T03:38:11;29.52;;;4.70;;
22687;SDS011;11511;51.514;7.080;2022-12-24T03:40:37;28.23;;;4.80;;
22687;SDS011;11511;51.514;7.080;2022-12-24T03:43:03;33.85;;;5.18;;
22687;SDS011;11511;51.514;7.080;2022-12-24T03:45:29;31.98;;;6.07;;
22687;SDS011;11511;51.514;7.080;2022-12-24T03:47:54;30.77;;;4.70;;
22687;SDS011;11511;51.514;7.080;2022-12-24T03:50:20;26.60;;;5.05;;
22687;SDS011;11511;51.514;7.080;2022-12-24T03:52:46;24.05;;;5.10;;
22687;SDS011;11511;51.514;7.080;2022-12-24T03:55:11;29.95;;;4.57;;
22687;SDS011;11511;51.514;7.080;2022-12-24T03:57:37;33.33;;;4.78;;
22687;SDS011;11511;51.514;7.080;2022-12-24T04:00:04;37.40;;;5.15;;
22687;SDS011;11511;51.514;7.080;2022-12-24T04:02:37;28.42;;;4.80;;
22687;SDS011;11511;51.514;7.080;2022-12-24T04:05:03;26.80;;;4.47;;
22687;SDS011;11511;51.514;7.080;2022-12-24T04:07:30;29.73;;;5.25;;
22687;SDS011;11511;51.514;7.080;2022-12-24T04:09:57;37.20;;;5.28;;
22687;SDS011;11511;51.514;7.080;2022-12-24T04:12:22;28.55;;;4.20;;
22687;SDS011;11511;51.514;7.080;2022-12-24T04:14:48;27.88;;;5.05;;
22687;SDS011;11511;51.514;7.080;2022-12-24T04:17:15;31.92;;;5.25;;
22687;SDS011;11511;51.514;7.080;2022-12-24T04:19:41;29.00;;;4.80;;
22687;SDS011;11511;51.514;7.080;2022-12-24T04:22:06;27.38;;;4.38;;
22687;SDS011;11511;51.514;7.080;2022-12-24T04:24:33;24.02;;;4.30;;
22687;SDS011;11511;51.514;7.080;2022-12-24T04:26:58;24.65;;;4.65;;
22687;SDS011;11511;51.514;7.080;2022-12-24T04:29:24;23.60;;;4.40;;
22687;SDS011;11511;51.514;7.080;2022-12-24T04:31:49;25.48;;;4.78;;
22687;SDS011;11511;51.514;7.080;2022-12-24T04:34:15;27.50;;;4.45;;
22687;SDS011;11511;51.514;7.080;2022-12-24T04:36:41;25.88;;;4.75;;
22687;SDS011;11511;51.514;7.080;2022-12-24T04:39:06;28.27;;;4.43;;
22687;SDS011;11511;51.514;7.080;2022-12-24T04:41:32;25.60;;;4.03;;
22687;SDS011;11511;51.514;7.080;2022-12-24T04:43:58;28.10;;;4.40;;
22687;SDS011;11511;51.514;7.080;2022-12-24T04:46:25;23.83;;;4.15;;
22687;SDS011;11511;51.514;7.080;2022-12-24T04:48:54;24.30;;;4.65;;
22687;SDS011;11511;51.514;7.080;2022-12-24T04:51:22;24.70;;;4.90;;
22687;SDS011;11511;51.514;7.080;2022-12-24T04:53:48;22.85;;;4.60;;
22687;SDS011;11511;51.514;7.080;2022-12-24T04:56:15;19.65;;;4.45;;
22687;SDS011;11511;51.514;7.080;2022-12-24T04:58:43;25.20;;;4.72;;
22687;SDS011;11511;51.514;7.080;2022-12-24T05:01:13;23.13;;;4.20;;
22687;SDS011;11511;51.514;7.080;2022-12-24T05:03:44;30.92;;;5.57;;
22687;SDS011;11511;51.514;7.080;2022-12-24T05:06:10;20.98;;;4.03;;
22687;SDS011;11511;51.514;7.080;2022-12-24T05:08:38;19.60;;;4.32;;
22687;SDS011;11511;51.514;7.080;2022-12-24T05:11:04;19.25;;;4.60;;
22687;SDS011;11511;51.514;7.080;2022-12-24T05:13:30;20.85;;;4.30;;
22687;SDS011;11511;51.514;7.080;2022-12-24T05:15:56;20.33;;;4.10;;
22687;SDS011;11511;51.514;7.080;2022-12-24T05:18:22;21.67;;;4.38;;
22687;SDS011;11511;51.514;7.080;2022-12-24T05:20:48;25.65;;;4.65;;
22687;SDS011;11511;51.514;7.080;2022-12-24T05:23:15;19.20;;;3.58;;
22687;SDS011;11511;51.514;7.080;2022-12-24T05:26:01;19.13;;;3.70;;
22687;SDS011;11511;51.514;7.080;2022-12-24T05:28:47;21.88;;;3.92;;
22687;SDS011;11511;51.514;7.080;2022-12-24T05:31:13;20.27;;;3.85;;
22687;SDS011;11511;51.514;7.080;2022-12-24T05:33:39;21.92;;;4.30;;
22687;SDS011;11511;51.514;7.080;2022-12-24T05:36:04;19.33;;;3.78;;
22687;SDS011;11511;51.514;7.080;2022-12-24T05:38:30;17.55;;;3.38;;
22687;SDS011;11511;51.514;7.080;2022-12-24T05:40:56;26.13;;;4.03;;
22687;SDS011;11511;51.514;7.080;2022-12-24T05:43:21;23.63;;;4.65;;
22687;SDS011;11511;51.514;7.080;2022-12-24T05:45:47;19.15;;;3.78;;
22687;SDS011;11511;51.514;7.080;2022-12-24T05:48:13;24.27;;;4.15;;
22687;SDS011;11511;51.514;7.080;2022-12-24T05:50:39;19.05;;;4.68;;
22687;SDS011;11511;51.514;7.080;2022-12-24T05:53:05;21.25;;;4.40;;
22687;SDS011;11511;51.514;7.080;2022-12-24T05:55:32;24.40;;;4.57;;
22687;SDS011;11511;51.514;7.080;2022-12-24T05:57:59;21.13;;;4.80;;
22687;SDS011;11511;51.514;7.080;2022-12-24T06:00:25;25.35;;;5.38;;
22687;SDS011;11511;51.514;7.080;2022-12-24T06:02:50;24.80;;;5.72;;
22687;SDS011;11511;51.514;7.080;2022-12-24T06:05:16;23.45;;;5.97;;
22687;SDS011;11511;51.514;7.080;2022-12-24T06:07:42;22.95;;;5.43;;
22687;SDS011;11511;51.514;7.080;2022-12-24T06:10:08;25.85;;;5.15;;
22687;SDS011;11511;51.514;7.080;2022-12-24T06:12:34;23.65;;;4.82;;
22687;SDS011;11511;51.514;7.080;2022-12-24T06:15:00;26.35;;;5.05;;
22687;SDS011;11511;51.514;7.080;2022-12-24T06:17:25;25.05;;;4.50;;
22687;SDS011;11511;51.514;7.080;2022-12-24T06:19:51;22.92;;;4.50;;
22687;SDS011;11511;51.514;7.080;2022-12-24T06:22:17;22.65;;;4.63;;
22687;SDS011;11511;51.514;7.080;2022-12-24T06:24:42;27.77;;;5.22;;
22687;SDS011;11511;51.514;7.080;2022-12-24T06:27:08;22.30;;;4.82;;
22687;SDS011;11511;51.514;7.080;2022-12-24T06:29:33;25.20;;;5.03;;
22687;SDS011;11511;51.514;7.080;2022-12-24T06:31:59;24.30;;;4.75;;
22687;SDS011;11511;51.514;7.080;2022-12-24T06:34:25;23.08;;;4.60;;
22687;SDS011;11511;51.514;7.080;2022-12-24T06:36:50;28.90;;;4.97;;
22687;SDS011;11511;51.514;7.080;2022-12-24T06:39:16;21.65;;;4.90;;
22687;SDS011;11511;51.514;7.080;2022-12-24T06:41:41;29.80;;;5.22;;
22687;SDS011;11511;51.514;7.080;2022-12-24T06:44:08;24.52;;;4.85;;
22687;SDS011;11511;51.514;7.080;2022-12-24T06:46:33;20.25;;;4.60;;
22687;SDS011;11511;51.514;7.080;2022-12-24T06:48:59;30.70;;;5.28;;
22687;SDS011;11511;51.514;7.080;2022-12-24T06:51:25;29.90;;;5.50;;
22687;SDS011;11511;51.514;7.080;2022-12-24T06:53:51;22.98;;;5.13;;
22687;SDS011;11511;51.514;7.080;2022-12-24T06:56:18;25.20;;;4.80;;
22687;SDS011;11511;51.514;7.080;2022-12-24T06:58:46;23.45;;;4.75;;
22687;SDS011;11511;51.514;7.080;2022-12-24T07:01:15;17.80;;;3.88;;
22687;SDS011;11511;51.514;7.080;2022-12-24T07:03:43;18.17;;;4.22;;
22687;SDS011;11511;51.514;7.080;2022-12-24T07:06:15;20.70;;;4.53;;
22687;SDS011;11511;51.514;7.080;2022-12-24T07:08:43;11.53;;;4.40;;
22687;SDS011;11511;51.514;7.080;2022-12-24T07:11:09;25.20;;;4.40;;
22687;SDS011;11511;51.514;7.080;2022-12-24T07:13:35;29.13;;;5.00;;
22687;SDS011;11511;51.514;7.080;2022-12-24T07:16:03;23.27;;;4.65;;
22687;SDS011;11511;51.514;7.080;2022-12-24T07:18:29;22.58;;;4.82;;
22687;SDS011;11511;51.514;7.080;2022-12-24T07:20:56;27.13;;;4.78;;
22687;SDS011;11511;51.514;7.080;2022-12-24T07:23:22;18.67;;;4.78;;
22687;SDS011;11511;51.514;7.080;2022-12-24T07:25:47;25.10;;;4.57;;
22687;SDS011;11511;51.514;7.080;2022-12-24T07:28:13;22.00;;;4.03;;
22687;SDS011;11511;51.514;7.080;2022-12-24T07:30:39;21.45;;;4.70;;
22687;SDS011;11511;51.514;7.080;2022-12-24T07:33:05;23.95;;;4.90;;
22687;SDS011;11511;51.514;7.080;2022-12-24T07:35:30;21.80;;;4.68;;
22687;SDS011;11511;51.514;7.080;2022-12-24T07:37:56;25.73;;;4.45;;
22687;SDS011;11511;51.514;7.080;2022-12-24T07:40:21;22.73;;;4.82;;
22687;SDS011;11511;51.514;7.080;2022-12-24T07:42:48;23.10;;;4.95;;
22687;SDS011;11511;51.514;7.080;2022-12-24T07:45:13;17.33;;;4.53;;
22687;SDS011;11511;51.514;7.080;2022-12-24T07:47:39;21.17;;;4.60;;
22687;SDS011;11511;51.514;7.080;2022-12-24T07:50:05;23.95;;;5.25;;
22687;SDS011;11511;51.514;7.080;2022-12-24T07:52:32;24.10;;;4.93;;
22687;SDS011;11511;51.514;7.080;2022-12-24T07:54:57;20.83;;;4.55;;
22687;SDS011;11511;51.514;7.080;2022-12-24T07:57:23;31.42;;;5.35;;
22687;SDS011;11511;51.514;7.080;2022-12-24T07:59:49;26.45;;;4.80;;
22687;SDS011;11511;51.514;7.080;2022-12-24T08:02:14;22.92;;;5.38;;
22687;SDS011;11511;51.514;7.080;2022-12-24T08:04:41;24.73;;;4.82;;
22687;SDS011;11511;51.514;7.080;2022-12-24T08:07:07;23.17;;;4.75;;
22687;SDS011;11511;51.514;7.080;2022-12-24T08:09:33;27.45;;;4.75;;
22687;SDS011;11511;51.514;7.080;2022-12-24T08:12:00;31.40;;;6.22;;
22687;SDS011;11511;51.514;7.080;2022-12-24T08:14:29;22.98;;;4.97;;
22687;SDS011;11511;51.514;7.080;2022-12-24T08:16:55;25.02;;;5.15;;
22687;SDS011;11511;51.514;7.080;2022-12-24T08:19:22;28.58;;;5.63;;
22687;SDS011;11511;51.514;7.080;2022-12-24T08:21:49;29.15;;;5.32;;
22687;SDS011;11511;51.514;7.080;2022-12-24T08:24:14;23.35;;;5.40;;
22687;SDS011;11511;51.514;7.080;2022-12-24T08:26:40;33.10;;;5.30;;
22687;SDS011;11511;51.514;7.080;2022-12-24T08:29:06;27.10;;;4.80;;
22687;SDS011;11511;51.514;7.080;2022-12-24T08:31:32;29.45;;;5.07;;
22687;SDS011;11511;51.514;7.080;2022-12-24T08:34:05;27.55;;;4.88;;
22687;SDS011;11511;51.514;7.080;2022-12-24T08:36:32;25.63;;;5.28;;
22687;SDS011;11511;51.514;7.080;2022-12-24T08:38:58;29.48;;;5.15;;
22687;SDS011;11511;51.514;7.080;2022-12-24T08:41:31;30.55;;;5.15;;
22687;SDS011;11511;51.514;7.080;2022-12-24T08:43:56;26.17;;;4.97;;
22687;SDS011;11511;51.514;7.080;2022-12-24T08:46:22;25.33;;;4.68;;
22687;SDS011;11511;51.514;7.080;2022-12-24T08:48:48;26.02;;;4.97;;
22687;SDS011;11511;51.514;7.080;2022-12-24T08:51:14;26.98;;;5.25;;
22687;SDS011;11511;51.514;7.080;2022-12-24T08:53:40;35.35;;;4.95;;
22687;SDS011;11511;51.514;7.080;2022-12-24T08:56:07;26.83;;;5.20;;
22687;SDS011;11511;51.514;7.080;2022-12-24T08:58:34;34.58;;;5.38;;
22687;SDS011;11511;51.514;7.080;2022-12-24T09:01:08;26.48;;;4.55;;
22687;SDS011;11511;51.514;7.080;2022-12-24T09:03:41;29.52;;;5.30;;
22687;SDS011;11511;51.514;7.080;2022-12-24T09:06:07;25.52;;;5.32;;
22687;SDS011;11511;51.514;7.080;2022-12-24T09:08:33;25.33;;;4.47;;
22687;SDS011;11511;51.514;7.080;2022-12-24T09:11:16;27.30;;;5.03;;
22687;SDS011;11511;51.514;7.080;2022-12-24T09:13:43;25.63;;;4.88;;
22687;SDS011;11511;51.514;7.080;2022-12-24T09:16:09;26.70;;;5.28;;
22687;SDS011;11511;51.514;7.080;2022-12-24T09:18:35;31.65;;;5.65;;
22687;SDS011;11511;51.514;7.080;2022-12-24T09:21:02;27.90;;;5.07;;
22687;SDS011;11511;51.514;7.080;2022-12-24T09:23:30;32.35;;;5.80;;
22687;SDS011;11511;51.514;7.080;2022-12-24T09:25:58;26.02;;;4.88;;
22687;SDS011;11511;51.514;7.080;2022-12-24T09:28:23;30.80;;;6.65;;
22687;SDS011;11511;51.514;7.080;2022-12-24T09:30:59;29.25;;;5.00;;
22687;SDS011;11511;51.514;7.080;2022-12-24T09:33:27;26.50;;;4.78;;
22687;SDS011;11511;51.514;7.080;2022-12-24T09:35:54;29.90;;;5.15;;
22687;SDS011;11511;51.514;7.080;2022-12-24T09:38:20;26.20;;;4.80;;
22687;SDS011;11511;51.514;7.080;2022-12-24T09:40:46;27.60;;;4.72;;
22687;SDS011;11511;51.514;7.080;2022-12-24T09:43:15;26.83;;;4.78;;
22687;SDS011;11511;51.514;7.080;2022-12-24T09:45:49;26.02;;;5.07;;
22687;SDS011;11511;51.514;7.080;2022-12-24T09:48:33;26.95;;;4.93;;
22687;SDS011;11511;51.514;7.080;2022-12-24T09:53:47;25.80;;;5.05;;
22687;SDS011;11511;51.514;7.080;2022-12-24T09:56:22;24.60;;;5.50;;
22687;SDS011;11511;51.514;7.080;2022-12-24T09:58:56;21.30;;;4.43;;
22687;SDS011;11511;51.514;7.080;2022-12-24T10:01:24;25.05;;;4.80;;
22687;SDS011;11511;51.514;7.080;2022-12-24T10:03:51;31.35;;;5.15;;
22687;SDS011;11511;51.514;7.080;2022-12-24T10:06:18;30.20;;;5.72;;
22687;SDS011;11511;51.514;7.080;2022-12-24T10:09:09;22.58;;;4.43;;
22687;SDS011;11511;51.514;7.080;2022-12-24T10:14:39;24.00;;;5.28;;
22687;SDS011;11511;51.514;7.080;2022-12-24T10:20:27;25.10;;;4.80;;
22687;SDS011;11511;51.514;7.080;2022-12-24T10:26:03;23.60;;;4.33;;
22687;SDS011;11511;51.514;7.080;2022-12-24T10:28:43;31.20;;;4.47;;
22687;SDS011;11511;51.514;7.080;2022-12-24T10:31:13;33.38;;;4.82;;
22687;SDS011;11511;51.514;7.080;2022-12-24T10:33:40;26.85;;;4.90;;
22687;SDS011;11511;51.514;7.080;2022-12-24T10:36:19;24.33;;;4.70;;
22687;SDS011;11511;51.514;7.080;2022-12-24T10:38:51;25.40;;;4.78;;
22687;SDS011;11511;51.514;7.080;2022-12-24T10:41:17;22.77;;;4.78;;
22687;SDS011;11511;51.514;7.080;2022-12-24T10:43:44;26.23;;;4.53;;
22687;SDS011;11511;51.514;7.080;2022-12-24T10:46:20;22.50;;;4.50;;
22687;SDS011;11511;51.514;7.080;2022-12-24T10:48:49;26.33;;;4.70;;
22687;SDS011;11511;51.514;7.080;2022-12-24T10:54:11;26.13;;;4.80;;
22687;SDS011;11511;51.514;7.080;2022-12-24T10:56:45;27.55;;;5.70;;
22687;SDS011;11511;51.514;7.080;2022-12-24T10:59:33;28.42;;;5.45;;
22687;SDS011;11511;51.514;7.080;2022-12-24T11:04:56;26.65;;;5.07;;
22687;SDS011;11511;51.514;7.080;2022-12-24T11:07:28;27.40;;;5.43;;
22687;SDS011;11511;51.514;7.080;2022-12-24T11:09:56;30.95;;;5.15;;
22687;SDS011;11511;51.514;7.080;2022-12-24T11:12:28;25.73;;;4.93;;
22687;SDS011;11511;51.514;7.080;2022-12-24T11:15:00;24.60;;;5.03;;
22687;SDS011;11511;51.514;7.080;2022-12-24T11:17:40;25.90;;;5.32;;
22687;SDS011;11511;51.514;7.080;2022-12-24T11:20:15;25.25;;;5.50;;
22687;SDS011;11511;51.514;7.080;2022-12-24T11:22:46;24.10;;;4.95;;
22687;SDS011;11511;51.514;7.080;2022-12-24T11:25:18;35.22;;;5.32;;
22687;SDS011;11511;51.514;7.080;2022-12-24T11:27:46;31.00;;;5.40;;
22687;SDS011;11511;51.514;7.080;2022-12-24T11:32:48;28.70;;;4.82;;
22687;SDS011;11511;51.514;7.080;2022-12-24T11:35:27;33.78;;;5.85;;
22687;SDS011;11511;51.514;7.080;2022-12-24T11:40:24;31.45;;;5.78;;
22687;SDS011;11511;51.514;7.080;2022-12-24T11:42:57;29.60;;;5.57;;
22687;SDS011;11511;51.514;7.080;2022-12-24T11:45:25;27.38;;;4.85;;
22687;SDS011;11511;51.514;7.080;2022-12-24T11:47:53;27.58;;;6.00;;
22687;SDS011;11511;51.514;7.080;2022-12-24T11:58:25;27.00;;;5.57;;
22687;SDS011;11511;51.514;7.080;2022-12-24T12:01:03;25.13;;;5.27;;
22687;SDS011;11511;51.514;7.080;2022-12-24T12:06:26;25.98;;;4.57;;
22687;SDS011;11511;51.514;7.080;2022-12-24T12:08:59;22.33;;;4.97;;
22687;SDS011;11511;51.514;7.080;2022-12-24T12:11:30;23.58;;;5.47;;
22687;SDS011;11511;51.514;7.080;2022-12-24T12:14:00;31.85;;;6.00;;
22687;SDS011;11511;51.514;7.080;2022-12-24T12:16:30;27.85;;;5.80;;
22687;SDS011;11511;51.514;7.080;2022-12-24T12:19:52;23.10;;;5.60;;
22687;SDS011;11511;51.514;7.080;2022-12-24T12:22:47;24.50;;;5.43;;
22687;SDS011;11511;51.514;7.080;2022-12-24T12:25:21;26.85;;;6.05;;
22687;SDS011;11511;51.514;7.080;2022-12-24T12:27:52;25.20;;;5.40;;
22687;SDS011;11511;51.514;7.080;2022-12-24T12:30:21;25.63;;;5.40;;
22687;SDS011;11511;51.514;7.080;2022-12-24T12:35:46;24.58;;;5.78;;
22687;SDS011;11511;51.514;7.080;2022-12-24T12:38:20;20.67;;;5.13;;
22687;SDS011;11511;51.514;7.080;2022-12-24T12:46:25;25.63;;;5.28;;
22687;SDS011;11511;51.514;7.080;2022-12-24T12:51:40;20.15;;;4.93;;
22687;SDS011;11511;51.514;7.080;2022-12-24T12:57:07;28.42;;;5.28;;
22687;SDS011;11511;51.514;7.080;2022-12-24T12:59:46;26.08;;;4.93;;
22687;SDS011;11511;51.514;7.080;2022-12-24T13:10:51;24.40;;;4.60;;
22687;SDS011;11511;51.514;7.080;2022-12-24T13:16:01;23.23;;;5.10;;
22687;SDS011;11511;51.514;7.080;2022-12-24T13:18:48;24.65;;;4.82;;
22687;SDS011;11511;51.514;7.080;2022-12-24T13:21:22;27.83;;;4.57;;
22687;SDS011;11511;51.514;7.080;2022-12-24T13:23:50;22.38;;;4.55;;
22687;SDS011;11511;51.514;7.080;2022-12-24T13:26:29;20.95;;;4.60;;
22687;SDS011;11511;51.514;7.080;2022-12-24T13:29:04;19.67;;;4.15;;
22687;SDS011;11511;51.514;7.080;2022-12-24T13:34:46;20.50;;;4.50;;
22687;SDS011;11511;51.514;7.080;2022-12-24T13:37:19;19.52;;;4.35;;
22687;SDS011;11511;51.514;7.080;2022-12-24T13:47:55;22.83;;;5.22;;
22687;SDS011;11511;51.514;7.080;2022-12-24T13:50:28;24.15;;;4.88;;
22687;SDS011;11511;51.514;7.080;2022-12-24T13:53:04;17.70;;;4.95;;
22687;SDS011;11511;51.514;7.080;2022-12-24T13:55:52;17.58;;;4.82;;
22687;SDS011;11511;51.514;7.080;2022-12-24T13:58:23;23.98;;;4.85;;
22687;SDS011;11511;51.514;7.080;2022-12-24T14:01:11;25.58;;;5.07;;
22687;SDS011;11511;51.514;7.080;2022-12-24T14:03:44;20.48;;;4.55;;
22687;SDS011;11511;51.514;7.080;2022-12-24T14:08:45;19.65;;;4.70;;
22687;SDS011;11511;51.514;7.080;2022-12-24T14:11:15;24.70;;;5.05;;
22687;SDS011;11511;51.514;7.080;2022-12-24T14:16:24;23.10;;;4.57;;
22687;SDS011;11511;51.514;7.080;2022-12-24T14:18:59;21.48;;;5.00;;
22687;SDS011;11511;51.514;7.080;2022-12-24T14:21:28;21.30;;;4.57;;
22687;SDS011;11511;51.514;7.080;2022-12-24T14:23:58;19.92;;;4.63;;
22687;SDS011;11511;51.514;7.080;2022-12-24T14:26:27;31.63;;;5.18;;
22687;SDS011;11511;51.514;7.080;2022-12-24T14:29:01;20.23;;;4.88;;
22687;SDS011;11511;51.514;7.080;2022-12-24T14:31:31;19.03;;;4.60;;
22687;SDS011;11511;51.514;7.080;2022-12-24T14:34:06;18.52;;;5.28;;
22687;SDS011;11511;51.514;7.080;2022-12-24T14:36:35;22.50;;;5.72;;
22687;SDS011;11511;51.514;7.080;2022-12-24T14:39:01;20.77;;;5.38;;
22687;SDS011;11511;51.514;7.080;2022-12-24T14:41:45;23.33;;;5.68;;
22687;SDS011;11511;51.514;7.080;2022-12-24T14:44:17;24.35;;;5.93;;
22687;SDS011;11511;51.514;7.080;2022-12-24T14:46:55;27.02;;;6.90;;
22687;SDS011;11511;51.514;7.080;2022-12-24T14:52:34;25.55;;;5.60;;
22687;SDS011;11511;51.514;7.080;2022-12-24T14:58:23;17.35;;;5.28;;
22687;SDS011;11511;51.514;7.080;2022-12-24T15:00:53;24.42;;;5.68;;
22687;SDS011;11511;51.514;7.080;2022-12-24T15:03:21;24.25;;;5.85;;
22687;SDS011;11511;51.514;7.080;2022-12-24T15:05:50;22.60;;;5.93;;
22687;SDS011;11511;51.514;7.080;2022-12-24T15:08:19;19.80;;;5.70;;
22687;SDS011;11511;51.514;7.080;2022-12-24T15:10:51;23.40;;;6.57;;
22687;SDS011;11511;51.514;7.080;2022-12-24T15:13:30;25.00;;;6.55;;
22687;SDS011;11511;51.514;7.080;2022-12-24T15:16:00;24.08;;;6.28;;
22687;SDS011;11511;51.514;7.080;2022-12-24T15:18:28;24.48;;;6.68;;
22687;SDS011;11511;51.514;7.080;2022-12-24T15:20:57;23.02;;;6.38;;
22687;SDS011;11511;51.514;7.080;2022-12-24T15:23:29;21.88;;;6.22;;
22687;SDS011;11511;51.514;7.080;2022-12-24T15:28:41;26.40;;;6.68;;
22687;SDS011;11511;51.514;7.080;2022-12-24T15:31:11;22.67;;;6.72;;
22687;SDS011;11511;51.514;7.080;2022-12-24T15:33:38;23.67;;;6.30;;
22687;SDS011;11511;51.514;7.080;2022-12-24T15:36:05;25.55;;;5.78;;
22687;SDS011;11511;51.514;7.080;2022-12-24T15:38:33;23.15;;;5.82;;
22687;SDS011;11511;51.514;7.080;2022-12-24T15:41:01;24.98;;;6.38;;
22687;SDS011;11511;51.514;7.080;2022-12-24T15:43:29;18.23;;;5.28;;
22687;SDS011;11511;51.514;7.080;2022-12-24T15:45:56;23.75;;;6.05;;
22687;SDS011;11511;51.514;7.080;2022-12-24T15:48:24;20.85;;;5.50;;
22687;SDS011;11511;51.514;7.080;2022-12-24T15:50:56;23.80;;;5.63;;
22687;SDS011;11511;51.514;7.080;2022-12-24T15:53:26;23.48;;;5.93;;
22687;SDS011;11511;51.514;7.080;2022-12-24T15:58:31;24.98;;;6.07;;
22687;SDS011;11511;51.514;7.080;2022-12-24T16:01:04;21.23;;;5.78;;
22687;SDS011;11511;51.514;7.080;2022-12-24T16:03:40;28.48;;;5.93;;
22687;SDS011;11511;51.514;7.080;2022-12-24T16:06:26;26.45;;;6.00;;
22687;SDS011;11511;51.514;7.080;2022-12-24T16:08:53;18.77;;;6.10;;
22687;SDS011;11511;51.514;7.080;2022-12-24T16:11:33;23.50;;;5.97;;
22687;SDS011;11511;51.514;7.080;2022-12-24T16:16:41;27.23;;;6.50;;
22687;SDS011;11511;51.514;7.080;2022-12-24T16:19:20;24.05;;;6.90;;
22687;SDS011;11511;51.514;7.080;2022-12-24T16:21:49;28.70;;;7.35;;
22687;SDS011;11511;51.514;7.080;2022-12-24T16:24:21;35.75;;;7.43;;
22687;SDS011;11511;51.514;7.080;2022-12-24T16:26:49;30.45;;;6.97;;
22687;SDS011;11511;51.514;7.080;2022-12-24T16:29:16;30.08;;;8.30;;
22687;SDS011;11511;51.514;7.080;2022-12-24T16:31:50;34.72;;;7.78;;
22687;SDS011;11511;51.514;7.080;2022-12-24T16:34:24;26.95;;;6.93;;
22687;SDS011;11511;51.514;7.080;2022-12-24T16:36:52;22.25;;;6.50;;
22687;SDS011;11511;51.514;7.080;2022-12-24T16:39:19;27.17;;;6.93;;